createdAt,value
2018-02-21T00:00:24.314Z,81.99
2018-02-21T00:01:30.494Z,82.16
2018-02-21T00:02:36.696Z,82.44
2018-02-21T00:03:42.848Z,82.32
2018-02-21T00:04:49.049Z,81.81
2018-02-21T00:05:55.263Z,82.05
2018-02-21T00:07:01.457Z,82.34
2018-02-21T00:08:08.230Z,82.44
2018-02-21T00:09:14.449Z,82.59
2018-02-21T00:10:20.092Z,82.27
2018-02-21T00:11:25.965Z,81.95
2018-02-21T00:12:32.208Z,81.41
2018-02-21T00:13:38.370Z,81.49
2018-02-21T00:14:44.567Z,81.69
2018-02-21T00:15:50.454Z,81.60
2018-02-21T00:16:56.669Z,81.72
2018-02-21T00:18:02.570Z,81.45
2018-02-21T00:19:08.785Z,81.06
2018-02-21T00:20:14.989Z,81.08
2018-02-21T00:21:21.222Z,81.23
2018-02-21T00:22:27.428Z,81.62
2018-02-21T00:23:33.377Z,81.73
2018-02-21T00:24:39.577Z,81.86
2018-02-21T00:25:45.769Z,81.61
2018-02-21T00:26:51.942Z,80.92
2018-02-21T00:27:58.103Z,80.95
2018-02-21T00:29:03.919Z,80.86
2018-02-21T00:30:09.691Z,80.73
2018-02-21T00:31:15.893Z,80.97
2018-02-21T00:32:22.129Z,80.87
2018-02-21T00:33:28.293Z,80.79
2018-02-21T00:34:34.475Z,80.41
2018-02-21T00:35:40.628Z,80.89
2018-02-21T00:36:46.848Z,81.01
2018-02-21T00:37:53.029Z,80.96
2018-02-21T00:39:00.053Z,80.60
2018-02-21T00:40:06.201Z,80.42
2018-02-21T00:41:12.396Z,80.59
2018-02-21T00:42:18.585Z,80.74
2018-02-21T00:43:24.777Z,80.74
2018-02-21T00:44:30.969Z,80.26
2018-02-21T00:45:39.145Z,80.47
2018-02-21T00:46:45.336Z,80.59
2018-02-21T00:47:51.530Z,80.49
2018-02-21T00:48:57.728Z,80.44
2018-02-21T00:50:03.915Z,80.55
2018-02-21T00:51:10.156Z,80.32
2018-02-21T00:52:16.432Z,80.27
2018-02-21T00:53:22.695Z,80.18
2018-02-21T00:54:28.921Z,79.78
2018-02-21T00:55:35.127Z,79.68
2018-02-21T00:56:41.287Z,79.91
2018-02-21T00:57:47.490Z,80.07
2018-02-21T00:58:53.645Z,80.00
2018-02-21T01:00:02.691Z,80.13
2018-02-21T01:01:08.632Z,80.45
2018-02-21T01:02:14.815Z,80.77
2018-02-21T01:03:20.989Z,81.32
2018-02-21T01:04:29.043Z,81.22
2018-02-21T01:05:36.549Z,80.96
2018-02-21T01:06:43.112Z,80.76
2018-02-21T01:07:49.295Z,80.73
2018-02-21T01:08:57.459Z,80.68
2018-02-21T01:10:03.640Z,80.54
2018-02-21T01:11:09.864Z,80.28
2018-02-21T01:12:16.061Z,80.79
2018-02-21T01:13:21.959Z,81.07
2018-02-21T01:14:28.113Z,81.32
2018-02-21T01:15:34.322Z,81.37
2018-02-21T01:16:40.553Z,81.36
2018-02-21T01:17:46.773Z,81.14
2018-02-21T01:18:53.360Z,80.79
2018-02-21T01:19:59.596Z,80.80
2018-02-21T01:21:05.903Z,80.96
2018-02-21T01:22:12.074Z,81.10
2018-02-21T01:23:18.298Z,81.31
2018-02-21T01:24:27.772Z,81.60
2018-02-21T01:25:34.131Z,81.54
2018-02-21T01:26:50.731Z,80.96
2018-02-21T01:27:57.207Z,81.36
2018-02-21T01:29:03.363Z,81.60
2018-02-21T01:30:09.258Z,81.45
2018-02-21T01:31:15.657Z,81.57
2018-02-21T01:32:21.824Z,81.59
2018-02-21T01:33:27.642Z,82.12
2018-02-21T01:34:33.846Z,82.15
2018-02-21T01:35:40.058Z,82.36
2018-02-21T01:36:46.209Z,82.25
2018-02-21T01:37:52.415Z,82.09
2018-02-21T01:38:58.632Z,82.08
2018-02-21T01:40:04.857Z,82.05
2018-02-21T01:41:11.111Z,81.87
2018-02-21T01:42:17.338Z,81.78
2018-02-21T01:43:23.548Z,81.93
2018-02-21T01:44:29.704Z,81.92
2018-02-21T01:45:35.622Z,81.73
2018-02-21T01:46:41.832Z,81.82
2018-02-21T01:47:48.218Z,81.85
2018-02-21T01:48:54.416Z,81.70
2018-02-21T01:50:09.447Z,82.01
2018-02-21T01:51:15.665Z,81.94
2018-02-21T01:52:21.820Z,82.07
2018-02-21T01:53:27.977Z,82.15
2018-02-21T01:54:34.229Z,82.08
2018-02-21T01:55:40.429Z,82.46
2018-02-21T01:56:51.495Z,82.34
2018-02-21T01:57:57.646Z,82.39
2018-02-21T01:59:11.121Z,82.29
2018-02-21T02:00:17.341Z,82.22
2018-02-21T02:01:22.241Z,82.33
2018-02-21T02:02:28.445Z,82.32
2018-02-21T02:03:34.654Z,82.00
2018-02-21T02:04:40.822Z,81.78
2018-02-21T02:05:47.047Z,82.11
2018-02-21T02:06:53.005Z,82.38
2018-02-21T02:07:59.183Z,82.87
2018-02-21T02:09:04.270Z,83.09
2018-02-21T02:10:10.504Z,82.81
2018-02-21T02:11:16.720Z,82.67
2018-02-21T02:12:22.981Z,82.57
2018-02-21T02:13:29.166Z,82.40
2018-02-21T02:14:35.365Z,82.12
2018-02-21T02:15:41.537Z,82.60
2018-02-21T02:16:48.324Z,82.70
2018-02-21T02:17:54.509Z,82.43
2018-02-21T02:19:00.713Z,82.53
2018-02-21T02:20:06.934Z,82.78
2018-02-21T02:21:13.159Z,83.09
2018-02-21T02:22:19.321Z,83.21
2018-02-21T02:23:34.061Z,83.24
2018-02-21T02:24:40.265Z,83.00
2018-02-21T02:25:46.490Z,82.88
2018-02-21T02:26:52.740Z,82.73
2018-02-21T02:27:58.902Z,82.84
2018-02-21T02:29:07.000Z,82.83
2018-02-21T02:30:13.241Z,83.14
2018-02-21T02:31:19.406Z,83.24
2018-02-21T02:32:25.575Z,83.19
2018-02-21T02:33:31.796Z,83.20
2018-02-21T02:34:37.982Z,83.15
2018-02-21T02:35:44.132Z,83.48
2018-02-21T02:36:50.290Z,83.46
2018-02-21T02:37:56.613Z,83.37
2018-02-21T02:39:13.597Z,83.48
2018-02-21T02:40:19.486Z,83.33
2018-02-21T02:41:25.765Z,83.43
2018-02-21T02:42:31.945Z,83.25
2018-02-21T02:43:38.163Z,83.00
2018-02-21T02:44:44.310Z,83.47
2018-02-21T02:45:50.519Z,83.90
2018-02-21T02:46:56.447Z,83.83
2018-02-21T02:48:02.618Z,84.02
2018-02-21T02:49:08.810Z,84.25
2018-02-21T02:50:15.025Z,84.24
2018-02-21T02:51:21.252Z,84.13
2018-02-21T02:52:27.491Z,84.24
2018-02-21T02:53:33.692Z,84.25
2018-02-21T02:54:39.905Z,83.94
2018-02-21T02:55:46.373Z,84.14
2018-02-21T02:56:52.585Z,84.24
2018-02-21T02:57:58.761Z,84.17
2018-02-21T02:59:04.926Z,84.29
2018-02-21T03:00:10.272Z,84.16
2018-02-21T03:01:17.435Z,84.15
2018-02-21T03:02:23.626Z,84.11
2018-02-21T03:03:29.802Z,83.97
2018-02-21T03:04:35.994Z,83.67
2018-02-21T03:05:42.162Z,83.87
2018-02-21T03:06:48.392Z,83.81
2018-02-21T03:07:54.986Z,83.96
2018-02-21T03:09:01.217Z,83.86
2018-02-21T03:10:07.502Z,83.73
2018-02-21T03:11:13.685Z,83.71
2018-02-21T03:12:19.958Z,83.91
2018-02-21T03:13:26.158Z,84.01
2018-02-21T03:14:32.311Z,83.69
2018-02-21T03:15:38.576Z,83.96
2018-02-21T03:16:44.584Z,83.73
2018-02-21T03:17:50.986Z,83.89
2018-02-21T03:18:57.176Z,84.47
2018-02-21T03:20:03.373Z,84.69
2018-02-21T03:21:09.601Z,84.73
2018-02-21T03:22:15.822Z,84.70
2018-02-21T03:23:22.023Z,84.50
2018-02-21T03:24:28.213Z,84.35
2018-02-21T03:25:34.818Z,84.17
2018-02-21T03:26:41.152Z,84.30
2018-02-21T03:27:47.336Z,84.22
2018-02-21T03:28:53.556Z,84.62
2018-02-21T03:29:59.749Z,84.94
2018-02-21T03:31:05.960Z,85.21
2018-02-21T03:32:11.706Z,84.96
2018-02-21T03:33:17.849Z,84.81
2018-02-21T03:34:24.023Z,84.37
2018-02-21T03:35:30.586Z,84.54
2018-02-21T03:36:36.910Z,84.70
2018-02-21T03:37:43.091Z,84.75
2018-02-21T03:38:49.282Z,85.23
2018-02-21T03:39:55.497Z,85.16
2018-02-21T03:41:01.693Z,84.56
2018-02-21T03:42:07.922Z,84.19
2018-02-21T03:43:14.518Z,84.34
2018-02-21T03:44:21.156Z,84.50
2018-02-21T03:45:27.551Z,84.89
2018-02-21T03:46:33.748Z,85.06
2018-02-21T03:47:39.904Z,85.29
2018-02-21T03:48:46.134Z,85.30
2018-02-21T03:49:52.452Z,85.60
2018-02-21T03:50:58.625Z,85.78
2018-02-21T03:52:04.916Z,85.69
2018-02-21T03:53:11.097Z,85.64
2018-02-21T03:54:21.686Z,85.70
2018-02-21T03:55:29.132Z,85.57
2018-02-21T03:56:39.935Z,85.53
2018-02-21T03:57:48.898Z,85.23
2018-02-21T03:58:56.027Z,85.68
2018-02-21T04:00:02.933Z,85.37
2018-02-21T04:01:09.114Z,85.16
2018-02-21T04:02:15.904Z,85.32
2018-02-21T04:03:22.126Z,85.47
2018-02-21T04:04:28.366Z,85.50
2018-02-21T04:05:35.255Z,86.09
2018-02-21T04:06:41.447Z,86.20
2018-02-21T04:07:48.653Z,85.92
2018-02-21T04:08:54.860Z,86.01
2018-02-21T04:10:01.145Z,85.80
2018-02-21T04:11:08.259Z,85.56
2018-02-21T04:12:14.494Z,85.62
2018-02-21T04:13:20.822Z,85.57
2018-02-21T04:14:27.065Z,85.89
2018-02-21T04:15:33.252Z,85.83
2018-02-21T04:16:44.308Z,85.70
2018-02-21T04:17:50.494Z,85.63
2018-02-21T04:19:00.307Z,85.78
2018-02-21T04:20:06.452Z,86.20
2018-02-21T04:21:12.652Z,86.29
2018-02-21T04:22:18.819Z,86.65
2018-02-21T04:23:25.034Z,86.33
2018-02-21T04:24:31.311Z,86.33
2018-02-21T04:25:37.664Z,86.54
2018-02-21T04:26:43.850Z,86.51
2018-02-21T04:27:50.090Z,86.64
2018-02-21T04:28:56.334Z,86.69
2018-02-21T04:30:02.899Z,86.43
2018-02-21T04:31:09.064Z,86.49
2018-02-21T04:32:15.312Z,86.55
2018-02-21T04:33:21.516Z,86.40
2018-02-21T04:34:27.665Z,86.13
2018-02-21T04:35:33.927Z,86.19
2018-02-21T04:36:39.787Z,86.14
2018-02-21T04:37:45.993Z,86.07
2018-02-21T04:38:52.437Z,86.40
2018-02-21T04:39:59.416Z,86.16
2018-02-21T04:41:06.774Z,85.98
2018-02-21T04:42:14.922Z,85.83
2018-02-21T04:43:22.596Z,86.18
2018-02-21T04:44:29.916Z,86.80
2018-02-21T04:45:36.666Z,87.04
2018-02-21T04:46:44.134Z,87.18
2018-02-21T04:47:51.741Z,87.49
2018-02-21T04:48:58.419Z,87.34
2018-02-21T04:50:04.679Z,87.14
2018-02-21T04:51:10.858Z,86.92
2018-02-21T04:52:17.632Z,86.65
2018-02-21T04:53:25.098Z,86.43
2018-02-21T04:54:37.321Z,86.04
2018-02-21T04:57:37.169Z,86.36
2018-02-21T04:58:48.960Z,86.63
2018-02-21T04:59:55.018Z,86.08
2018-02-21T05:01:04.550Z,85.97
2018-02-21T05:02:10.617Z,86.17
2018-02-21T05:03:17.708Z,85.83
2018-02-21T05:04:23.851Z,85.53
2018-02-21T05:05:30.257Z,85.34
2018-02-21T05:06:36.260Z,85.50
2018-02-21T05:07:42.522Z,85.65
2018-02-21T05:08:49.017Z,85.51
2018-02-21T05:09:55.168Z,85.63
2018-02-21T05:11:01.381Z,85.57
2018-02-21T05:12:07.592Z,85.61
2018-02-21T05:13:13.772Z,85.36
2018-02-21T05:14:19.945Z,85.42
2018-02-21T05:15:26.090Z,85.40
2018-02-21T05:16:32.360Z,85.16
2018-02-21T05:17:38.751Z,85.16
2018-02-21T05:18:44.925Z,85.40
2018-02-21T05:19:51.156Z,85.85
2018-02-21T05:20:57.420Z,85.71
2018-02-21T05:22:03.656Z,85.84
2018-02-21T05:23:09.919Z,85.69
2018-02-21T05:24:16.118Z,85.50
2018-02-21T05:25:22.373Z,85.47
2018-02-21T05:26:28.619Z,85.17
2018-02-21T05:27:34.864Z,85.30
2018-02-21T05:28:41.060Z,85.19
2018-02-21T05:29:47.258Z,85.17
2018-02-21T05:30:53.477Z,85.32
2018-02-21T05:31:59.730Z,85.64
2018-02-21T05:33:05.941Z,85.99
2018-02-21T05:34:12.422Z,86.22
2018-02-21T05:35:18.554Z,86.48
2018-02-21T05:36:24.603Z,86.58
2018-02-21T05:37:30.780Z,86.82
2018-02-21T05:38:37.034Z,86.68
2018-02-21T05:39:43.265Z,86.54
2018-02-21T05:40:49.502Z,86.66
2018-02-21T05:41:55.660Z,86.98
2018-02-21T05:43:01.844Z,86.95
2018-02-21T05:44:07.772Z,87.22
2018-02-21T05:45:13.942Z,87.20
2018-02-21T05:46:20.187Z,87.22
2018-02-21T05:47:26.360Z,87.35
2018-02-21T05:48:32.556Z,87.43
2018-02-21T05:49:38.732Z,87.20
2018-02-21T05:50:44.912Z,87.33
2018-02-21T05:51:50.928Z,87.20
2018-02-21T05:52:57.181Z,87.06
2018-02-21T05:54:03.377Z,86.95
2018-02-21T05:55:09.531Z,86.60
2018-02-21T05:56:15.735Z,86.65
2018-02-21T05:57:21.933Z,86.77
2018-02-21T05:58:27.805Z,87.22
2018-02-21T05:59:33.986Z,87.38
2018-02-21T06:00:40.138Z,87.46
2018-02-21T06:01:46.326Z,87.65
2018-02-21T06:02:52.646Z,88.24
2018-02-21T06:03:58.894Z,88.03
2018-02-21T06:05:12.078Z,87.84
2018-02-21T06:06:18.852Z,87.83
2018-02-21T06:07:25.038Z,87.81
2018-02-21T06:08:31.253Z,87.96
2018-02-21T06:09:37.438Z,87.75
2018-02-21T06:10:43.648Z,87.13
2018-02-21T06:11:49.832Z,87.17
2018-02-21T06:12:56.071Z,87.17
2018-02-21T06:14:01.999Z,86.68
2018-02-21T06:15:08.223Z,86.58
2018-02-21T06:16:14.577Z,86.67
2018-02-21T06:17:20.714Z,86.58
2018-02-21T06:18:26.994Z,86.55
2018-02-21T06:19:33.345Z,86.93
2018-02-21T06:20:39.484Z,86.98
2018-02-21T06:21:45.678Z,87.01
2018-02-21T06:22:51.870Z,86.68
2018-02-21T06:23:58.075Z,86.11
2018-02-21T06:25:04.341Z,86.19
2018-02-21T06:26:10.698Z,86.63
2018-02-21T06:27:16.898Z,87.16
2018-02-21T06:28:23.139Z,87.25
2018-02-21T06:29:29.328Z,87.08
2018-02-21T06:30:35.858Z,87.31
2018-02-21T06:31:42.068Z,87.15
2018-02-21T06:32:49.316Z,87.05
2018-02-21T06:33:55.611Z,87.05
2018-02-21T06:35:01.855Z,87.03
2018-02-21T06:36:08.039Z,87.04
2018-02-21T06:37:14.226Z,87.28
2018-02-21T06:38:20.419Z,87.28
2018-02-21T06:39:26.628Z,87.28
2018-02-21T06:40:32.843Z,87.50
2018-02-21T06:41:39.088Z,87.56
2018-02-21T06:42:45.232Z,87.94
2018-02-21T06:43:51.498Z,87.96
2018-02-21T06:44:57.614Z,87.74
2018-02-21T06:46:03.844Z,87.69
2018-02-21T06:47:10.020Z,87.99
2018-02-21T06:48:16.173Z,88.32
2018-02-21T06:49:22.342Z,88.34
2018-02-21T06:50:28.839Z,88.84
2018-02-21T06:51:35.070Z,88.80
2018-02-21T06:52:41.671Z,88.58
2018-02-21T06:53:47.842Z,88.44
2018-02-21T06:54:53.999Z,87.91
2018-02-21T06:56:00.365Z,87.78
2018-02-21T06:57:06.546Z,87.73
2018-02-21T06:58:12.759Z,87.53
2018-02-21T06:59:19.136Z,87.41
2018-02-21T07:00:25.332Z,87.34
2018-02-21T07:01:31.585Z,87.05
2018-02-21T07:02:37.752Z,86.90
2018-02-21T07:03:43.633Z,87.07
2018-02-21T07:04:49.810Z,87.71
2018-02-21T07:05:56.023Z,87.21
2018-02-21T07:07:03.157Z,87.32
2018-02-21T07:08:11.336Z,87.15
2018-02-21T07:09:17.527Z,86.98
2018-02-21T07:10:23.748Z,86.88
2018-02-21T07:11:29.954Z,86.76
2018-02-21T07:12:36.232Z,86.46
2018-02-21T07:13:42.486Z,86.65
2018-02-21T07:14:48.754Z,86.92
2018-02-21T07:15:54.954Z,87.11
2018-02-21T07:17:01.106Z,86.79
2018-02-21T07:18:06.925Z,86.46
2018-02-21T07:19:13.115Z,85.76
2018-02-21T07:20:19.293Z,85.42
2018-02-21T07:21:25.501Z,85.76
2018-02-21T07:22:31.713Z,85.91
2018-02-21T07:23:37.861Z,86.04
2018-02-21T07:24:44.007Z,85.81
2018-02-21T07:25:50.205Z,85.72
2018-02-21T07:26:56.374Z,85.73
2018-02-21T07:28:02.590Z,86.01
2018-02-21T07:29:08.823Z,85.88
2018-02-21T07:30:14.971Z,85.65
2018-02-21T07:31:21.160Z,85.79
2018-02-21T07:32:27.347Z,85.64
2018-02-21T07:33:33.512Z,85.63
2018-02-21T07:34:39.748Z,85.44
2018-02-21T07:35:45.737Z,85.32
2018-02-21T07:36:51.971Z,85.12
2018-02-21T07:38:03.265Z,84.89
2018-02-21T07:39:09.431Z,84.87
2018-02-21T07:40:15.608Z,84.73
2018-02-21T07:41:22.028Z,84.50
2018-02-21T07:42:28.232Z,84.48
2018-02-21T07:43:34.442Z,84.31
2018-02-21T07:44:40.682Z,84.26
2018-02-21T07:45:46.937Z,84.13
2018-02-21T07:46:53.175Z,83.70
2018-02-21T07:47:59.398Z,83.74
2018-02-21T07:49:05.601Z,83.56
2018-02-21T07:50:11.745Z,83.68
2018-02-21T07:51:17.970Z,83.87
2018-02-21T07:52:24.168Z,83.91
2018-02-21T07:53:30.367Z,83.76
2018-02-21T07:54:36.528Z,83.39
2018-02-21T07:55:42.753Z,83.49
2018-02-21T07:56:48.952Z,83.75
2018-02-21T07:57:54.952Z,83.25
2018-02-21T07:59:01.093Z,83.13
2018-02-21T08:00:07.240Z,83.21
2018-02-21T08:01:13.453Z,83.59
2018-02-21T08:02:19.656Z,83.50
2018-02-21T08:03:25.900Z,83.61
2018-02-21T08:04:32.080Z,83.33
2018-02-21T08:05:38.265Z,83.13
2018-02-21T08:06:48.050Z,83.02
2018-02-21T08:07:55.292Z,83.16
2018-02-21T08:09:01.469Z,82.75
2018-02-21T08:10:07.616Z,82.85
2018-02-21T08:11:13.809Z,83.07
2018-02-21T08:12:19.962Z,82.92
2018-02-21T08:13:26.188Z,82.64
2018-02-21T08:14:32.342Z,82.51
2018-02-21T08:15:38.569Z,82.80
2018-02-21T08:16:44.721Z,83.00
2018-02-21T08:17:50.896Z,82.51
2018-02-21T08:18:57.086Z,82.35
2018-02-21T08:20:03.277Z,82.05
2018-02-21T08:21:09.226Z,81.87
2018-02-21T08:22:15.394Z,81.87
2018-02-21T08:23:21.585Z,81.98
2018-02-21T08:24:27.744Z,81.68
2018-02-21T08:25:34.012Z,81.83
2018-02-21T08:26:40.332Z,81.70
2018-02-21T08:27:47.721Z,81.30
2018-02-21T08:28:53.577Z,81.27
2018-02-21T08:29:59.786Z,81.42
2018-02-21T08:31:05.932Z,81.60
2018-02-21T08:32:11.798Z,82.23
2018-02-21T08:33:18.030Z,81.91
2018-02-21T08:34:24.477Z,81.69
2018-02-21T08:35:30.660Z,81.74
2018-02-21T08:36:36.824Z,81.80
2018-02-21T08:37:43.155Z,82.52
2018-02-21T08:38:49.333Z,82.23
2018-02-21T08:39:55.581Z,81.67
2018-02-21T08:41:01.777Z,81.76
2018-02-21T08:42:07.940Z,82.42
2018-02-21T08:43:14.152Z,82.67
2018-02-21T08:44:20.306Z,82.40
2018-02-21T08:45:26.539Z,82.01
2018-02-21T08:46:32.717Z,81.82
2018-02-21T08:47:39.832Z,81.27
2018-02-21T08:48:45.960Z,80.88
2018-02-21T08:49:52.202Z,81.11
2018-02-21T08:50:58.419Z,81.56
2018-02-21T08:52:04.944Z,81.59
2018-02-21T08:53:11.171Z,81.49
2018-02-21T08:54:17.346Z,81.53
2018-02-21T08:55:23.560Z,81.39
2018-02-21T08:56:32.730Z,81.22
2018-02-21T08:57:38.945Z,81.41
2018-02-21T08:58:45.197Z,81.43
2018-02-21T08:59:51.351Z,81.39
2018-02-21T09:00:57.517Z,80.99
2018-02-21T09:02:03.679Z,81.17
2018-02-21T09:03:09.877Z,81.07
2018-02-21T09:04:16.070Z,80.71
2018-02-21T09:05:22.288Z,80.37
2018-02-21T09:06:28.420Z,80.43
2018-02-21T09:07:34.568Z,80.80
2018-02-21T09:08:40.797Z,80.85
2018-02-21T09:09:47.003Z,80.80
2018-02-21T09:10:53.208Z,80.36
2018-02-21T09:11:59.359Z,80.80
2018-02-21T09:13:05.618Z,80.55
2018-02-21T09:14:11.816Z,80.45
2018-02-21T09:15:18.001Z,81.41
2018-02-21T09:16:24.240Z,80.99
2018-02-21T09:17:30.423Z,80.92
2018-02-21T09:18:36.634Z,81.00
2018-02-21T09:19:42.793Z,80.84
2018-02-21T09:20:49.700Z,81.12
2018-02-21T09:21:56.150Z,81.68
2018-02-21T09:23:02.400Z,81.57
2018-02-21T09:24:08.577Z,80.80
2018-02-21T09:25:14.731Z,80.42
2018-02-21T09:26:20.891Z,79.76
2018-02-21T09:27:27.064Z,79.93
2018-02-21T09:28:33.259Z,80.25
2018-02-21T09:29:39.420Z,80.83
2018-02-21T09:30:45.297Z,81.08
2018-02-21T09:31:51.447Z,80.69
2018-02-21T09:32:57.604Z,80.78
2018-02-21T09:34:03.747Z,79.82
2018-02-21T09:35:09.970Z,79.92
2018-02-21T09:36:16.134Z,79.80
2018-02-21T09:37:22.289Z,79.69
2018-02-21T09:38:28.462Z,79.99
2018-02-21T09:39:34.665Z,80.35
2018-02-21T09:40:40.869Z,80.30
2018-02-21T09:41:47.391Z,80.08
2018-02-21T09:42:53.700Z,78.43
2018-02-21T09:43:59.912Z,79.30
2018-02-21T09:45:06.189Z,79.46
2018-02-21T09:46:12.416Z,78.97
2018-02-21T09:47:18.640Z,78.72
2018-02-21T09:48:24.796Z,78.45
2018-02-21T09:49:31.133Z,78.47
2018-02-21T09:50:37.277Z,77.69
2018-02-21T09:51:43.454Z,77.74
2018-02-21T09:52:49.667Z,77.98
2018-02-21T09:53:55.869Z,78.66
2018-02-21T09:55:02.022Z,78.88
2018-02-21T09:56:08.190Z,78.52
2018-02-21T09:57:14.369Z,78.65
2018-02-21T09:58:20.806Z,77.85
2018-02-21T09:59:27.000Z,78.42
2018-02-21T10:00:33.148Z,78.14
2018-02-21T10:01:39.321Z,77.80
2018-02-21T10:02:45.540Z,77.18
2018-02-21T10:03:51.993Z,76.69
2018-02-21T10:04:58.147Z,76.82
2018-02-21T10:06:04.363Z,76.53
2018-02-21T10:07:10.806Z,75.01
2018-02-21T10:08:17.005Z,74.79
2018-02-21T10:09:23.007Z,74.08
2018-02-21T10:10:29.289Z,74.30
2018-02-21T10:11:35.534Z,73.97
2018-02-21T10:12:41.713Z,73.88
2018-02-21T10:13:47.896Z,73.74
2018-02-21T10:14:54.080Z,73.08
2018-02-21T10:16:00.260Z,72.44
2018-02-21T10:17:06.448Z,73.32
2018-02-21T10:18:12.683Z,73.52
2018-02-21T10:19:18.897Z,74.51
2018-02-21T10:20:25.107Z,75.54
2018-02-21T10:21:31.481Z,75.76
2018-02-21T10:22:37.363Z,75.95
2018-02-21T10:23:43.618Z,75.80
2018-02-21T10:24:49.801Z,75.87
2018-02-21T10:25:55.945Z,76.22
2018-02-21T10:27:02.133Z,76.48
2018-02-21T10:28:07.954Z,75.94
2018-02-21T10:29:14.155Z,75.01
2018-02-21T10:30:20.425Z,73.84
2018-02-21T10:31:26.647Z,73.15
2018-02-21T10:32:32.887Z,73.05
2018-02-21T10:33:39.032Z,73.00
2018-02-21T10:34:45.193Z,73.27
2018-02-21T10:35:51.408Z,73.73
2018-02-21T10:36:57.622Z,74.92
2018-02-21T10:38:03.775Z,75.42
2018-02-21T10:39:10.074Z,75.91
2018-02-21T10:40:16.234Z,75.37
2018-02-21T10:41:22.642Z,75.32
2018-02-21T10:42:28.843Z,75.16
2018-02-21T10:43:35.098Z,75.03
2018-02-21T10:44:46.164Z,75.21
2018-02-21T10:45:52.388Z,75.00
2018-02-21T10:47:04.825Z,74.61
2018-02-21T10:48:11.016Z,74.49
2018-02-21T10:49:17.178Z,75.11
2018-02-21T10:50:23.428Z,75.03
2018-02-21T10:51:29.580Z,74.36
2018-02-21T10:52:35.746Z,73.20
2018-02-21T10:53:42.024Z,73.25
2018-02-21T10:54:48.351Z,73.02
2018-02-21T10:55:54.569Z,72.51
2018-02-21T10:57:00.776Z,72.66
2018-02-21T10:58:06.892Z,71.93
2018-02-21T10:59:13.088Z,71.20
2018-02-21T11:00:24.564Z,71.31
2018-02-21T11:01:30.780Z,71.31
2018-02-21T11:02:36.945Z,70.91
2018-02-21T11:03:43.144Z,71.34
2018-02-21T11:04:49.288Z,70.97
2018-02-21T11:05:55.463Z,70.53
2018-02-21T11:07:01.670Z,70.41
2018-02-21T11:08:08.010Z,69.62
2018-02-21T11:09:14.157Z,69.57
2018-02-21T11:10:20.369Z,70.84
2018-02-21T11:11:26.530Z,71.54
2018-02-21T11:12:32.585Z,71.72
2018-02-21T11:13:39.162Z,71.44
2018-02-21T11:14:45.319Z,71.28
2018-02-21T11:15:51.489Z,70.56
2018-02-21T11:16:57.686Z,69.12
2018-02-21T11:18:03.928Z,69.26
2018-02-21T11:19:15.273Z,68.48
2018-02-21T11:20:21.450Z,67.78
2018-02-21T11:21:27.724Z,68.27
2018-02-21T11:22:33.883Z,68.54
2018-02-21T11:23:40.133Z,68.54
2018-02-21T11:24:46.539Z,67.14
2018-02-21T11:25:53.751Z,67.77
2018-02-21T11:26:59.945Z,67.57
2018-02-21T11:28:06.099Z,68.38
2018-02-21T11:29:12.319Z,68.43
2018-02-21T11:30:18.480Z,68.00
2018-02-21T11:31:24.697Z,67.76
2018-02-21T11:32:30.867Z,67.56
2018-02-21T11:33:37.000Z,67.32
2018-02-21T11:34:43.130Z,66.34
2018-02-21T11:35:49.378Z,66.12
2018-02-21T11:36:55.560Z,66.27
2018-02-21T11:38:01.805Z,65.74
2018-02-21T11:39:07.967Z,65.15
2018-02-21T11:40:14.101Z,65.96
2018-02-21T11:41:20.651Z,66.71
2018-02-21T11:42:26.801Z,65.87
2018-02-21T11:43:33.007Z,66.16
2018-02-21T11:44:39.283Z,65.33
2018-02-21T11:45:45.415Z,64.97
2018-02-21T11:46:51.557Z,65.05
2018-02-21T11:47:57.775Z,63.65
2018-02-21T11:49:03.936Z,64.35
2018-02-21T11:50:10.109Z,64.37
2018-02-21T11:51:16.304Z,64.74
2018-02-21T11:52:22.462Z,64.31
2018-02-21T11:53:28.628Z,64.42
2018-02-21T11:54:34.838Z,65.54
2018-02-21T11:55:41.005Z,66.24
2018-02-21T11:56:47.162Z,65.73
2018-02-21T11:57:53.400Z,65.60
2018-02-21T11:58:59.648Z,65.83
2018-02-21T12:00:05.477Z,65.63
2018-02-21T12:01:11.392Z,65.90
2018-02-21T12:02:17.548Z,66.33
2018-02-21T12:03:23.745Z,65.97
2018-02-21T12:04:29.871Z,66.03
2018-02-21T12:05:36.225Z,65.76
2018-02-21T12:06:42.384Z,64.90
2018-02-21T12:07:48.796Z,65.08
2018-02-21T12:08:55.006Z,63.18
2018-02-21T12:10:01.594Z,62.29
2018-02-21T12:11:07.735Z,62.60
2018-02-21T12:12:13.910Z,62.18
2018-02-21T12:13:19.789Z,61.58
2018-02-21T12:14:33.157Z,61.00
2018-02-21T12:15:39.304Z,61.50
2018-02-21T12:16:45.541Z,61.36
2018-02-21T12:17:51.756Z,61.96
2018-02-21T12:18:57.901Z,62.16
2018-02-21T12:20:04.141Z,62.03
2018-02-21T12:21:10.319Z,61.73
2018-02-21T12:22:16.577Z,61.93
2018-02-21T12:23:22.765Z,62.15
2018-02-21T12:24:28.965Z,61.88
2018-02-21T12:25:35.099Z,62.00
2018-02-21T12:26:41.750Z,62.46
2018-02-21T12:27:48.151Z,62.62
2018-02-21T12:28:54.296Z,63.06
2018-02-21T12:30:00.584Z,62.56
2018-02-21T12:31:06.592Z,62.52
2018-02-21T12:32:13.991Z,62.63
2018-02-21T12:33:20.191Z,62.87
2018-02-21T12:34:26.347Z,62.63
2018-02-21T12:35:32.538Z,63.16
2018-02-21T12:36:38.709Z,62.72
2018-02-21T12:37:44.885Z,62.17
2018-02-21T12:38:56.391Z,61.60
2018-02-21T12:40:02.357Z,61.88
2018-02-21T12:41:14.098Z,61.90
2018-02-21T12:42:20.234Z,61.98
2018-02-21T12:43:26.462Z,62.22
2018-02-21T12:44:32.680Z,61.44
2018-02-21T12:45:38.822Z,60.09
2018-02-21T12:46:45.012Z,59.95
2018-02-21T12:47:51.135Z,59.81
2018-02-21T12:48:57.348Z,59.56
2018-02-21T12:50:03.194Z,59.33
2018-02-21T12:51:09.073Z,59.79
2018-02-21T12:52:15.335Z,59.98
2018-02-21T12:53:21.481Z,60.20
2018-02-21T12:54:27.695Z,60.39
2018-02-21T12:55:33.901Z,60.76
2018-02-21T12:56:40.102Z,60.91
2018-02-21T12:57:46.240Z,61.11
2018-02-21T12:58:52.394Z,59.89
2018-02-21T12:59:58.599Z,58.92
2018-02-21T13:01:04.757Z,58.92
2018-02-21T13:02:10.995Z,59.49
2018-02-21T13:03:17.229Z,59.42
2018-02-21T13:04:23.391Z,58.97
2018-02-21T13:05:29.567Z,58.48
2018-02-21T13:06:35.729Z,58.38
2018-02-21T13:07:41.909Z,59.15
2018-02-21T13:08:48.053Z,59.81
2018-02-21T13:09:54.484Z,59.65
2018-02-21T13:11:00.401Z,59.31
2018-02-21T13:12:07.338Z,59.48
2018-02-21T13:13:13.452Z,58.88
2018-02-21T13:14:19.651Z,58.98
2018-02-21T13:15:26.455Z,59.19
2018-02-21T13:16:32.635Z,59.10
2018-02-21T13:17:41.630Z,58.36
2018-02-21T13:18:48.107Z,58.81
2018-02-21T13:19:54.279Z,59.35
2018-02-21T13:21:00.498Z,60.18
2018-02-21T13:22:06.698Z,60.20
2018-02-21T13:23:12.878Z,60.18
2018-02-21T13:24:19.075Z,60.38
2018-02-21T13:25:25.273Z,59.28
2018-02-21T13:26:31.775Z,59.84
2018-02-21T13:27:37.926Z,59.67
2018-02-21T13:28:44.048Z,59.12
2018-02-21T13:29:50.224Z,58.89
2018-02-21T13:30:56.427Z,58.74
2018-02-21T13:32:02.609Z,59.38
2018-02-21T13:33:08.797Z,59.62
2018-02-21T13:34:14.958Z,59.57
2018-02-21T13:35:21.179Z,59.30
2018-02-21T13:36:27.554Z,58.24
2018-02-21T13:37:33.788Z,58.49
2018-02-21T13:38:39.747Z,58.59
2018-02-21T13:39:45.924Z,58.42
2018-02-21T13:40:52.081Z,58.63
2018-02-21T13:41:58.224Z,58.20
2018-02-21T13:43:04.442Z,58.76
2018-02-21T13:44:10.614Z,58.72
2018-02-21T13:45:16.748Z,57.97
2018-02-21T13:46:22.931Z,58.46
2018-02-21T13:47:29.144Z,58.44
2018-02-21T13:48:35.296Z,58.13
2018-02-21T13:49:41.502Z,58.32
2018-02-21T13:50:47.710Z,58.29
2018-02-21T13:51:53.868Z,58.39
2018-02-21T13:53:00.056Z,58.67
2018-02-21T13:54:06.220Z,58.52
2018-02-21T13:55:12.418Z,58.57
2018-02-21T13:56:18.578Z,58.21
2018-02-21T13:57:24.727Z,58.47
2018-02-21T13:58:30.870Z,58.23
2018-02-21T13:59:37.076Z,57.79
2018-02-21T14:00:43.285Z,57.98
2018-02-21T14:01:49.495Z,58.54
2018-02-21T14:02:55.651Z,58.25
2018-02-21T14:04:01.810Z,58.67
2018-02-21T14:05:08.023Z,58.64
2018-02-21T14:06:14.193Z,58.95
2018-02-21T14:07:20.341Z,58.44
2018-02-21T14:08:26.596Z,58.43
2018-02-21T14:09:32.774Z,58.64
2018-02-21T14:10:38.992Z,58.55
2018-02-21T14:11:45.193Z,58.32
2018-02-21T14:12:51.666Z,58.47
2018-02-21T14:13:57.810Z,58.23
2018-02-21T14:15:04.025Z,58.97
2018-02-21T14:16:10.550Z,59.14
2018-02-21T14:17:16.785Z,59.49